createdAt,value
2023-01-19T00:00:54.558Z,3.40
2023-01-19T00:03:21.590Z,3.38
2023-01-19T00:05:48.565Z,3.20
2023-01-19T00:08:15.332Z,3.50
2023-01-19T00:10:47.772Z,3.22
2023-01-19T00:13:15.793Z,2.92
2023-01-19T00:15:43.005Z,3.10
2023-01-19T00:18:11.145Z,3.10
2023-01-19T00:20:39.345Z,2.80
2023-01-19T00:23:08.003Z,3.00
2023-01-19T00:25:35.471Z,2.78
2023-01-19T00:28:02.409Z,2.95
2023-01-19T00:30:29.282Z,2.63
2023-01-19T00:32:56.406Z,3.00
2023-01-19T00:35:23.287Z,2.83
2023-01-19T00:37:50.318Z,2.75
2023-01-19T00:40:17.508Z,3.00
2023-01-19T00:42:44.594Z,2.85
2023-01-19T00:45:16.177Z,2.67
2023-01-19T00:47:42.932Z,2.70
2023-01-19T00:50:14.454Z,2.60
2023-01-19T00:52:41.995Z,2.67
2023-01-19T00:55:10.189Z,2.97
2023-01-19T00:57:37.794Z,2.58
2023-01-19T01:00:11.657Z,3.00
2023-01-19T01:02:39.959Z,2.80
2023-01-19T01:05:07.860Z,2.95
2023-01-19T01:07:41.249Z,2.83
2023-01-19T01:10:16.845Z,3.15
2023-01-19T01:12:53.649Z,2.60
2023-01-19T01:15:26.380Z,2.80
2023-01-19T01:17:53.632Z,2.58
2023-01-19T01:20:27.956Z,2.80
2023-01-19T01:22:56.235Z,2.75
2023-01-19T01:25:24.807Z,3.03
2023-01-19T01:27:52.417Z,3.10
2023-01-19T01:30:19.943Z,2.80
2023-01-19T01:32:46.758Z,2.85
2023-01-19T01:35:14.022Z,2.70
2023-01-19T01:37:41.127Z,3.00
2023-01-19T01:40:09.032Z,3.03
2023-01-19T01:42:35.893Z,2.97
2023-01-19T01:45:07.612Z,3.08
2023-01-19T01:47:47.195Z,3.10
2023-01-19T01:50:26.432Z,3.13
2023-01-19T01:53:06.639Z,3.50
2023-01-19T01:55:43.274Z,3.38
2023-01-19T01:58:11.346Z,3.47
2023-01-19T02:00:58.807Z,4.32
2023-01-19T02:03:26.916Z,3.55
2023-01-19T02:05:57.607Z,3.80
2023-01-19T02:09:05.187Z,3.92
2023-01-19T02:11:52.045Z,3.67
2023-01-19T02:14:21.544Z,3.90
2023-01-19T02:16:48.582Z,3.70
2023-01-19T02:19:26.186Z,4.60
2023-01-19T02:22:25.788Z,3.17
2023-01-19T02:24:53.930Z,3.70
2023-01-19T02:27:20.836Z,3.30
2023-01-19T02:29:47.777Z,3.40
2023-01-19T02:32:14.531Z,3.50
2023-01-19T02:34:41.335Z,3.33
2023-01-19T02:37:12.515Z,3.22
2023-01-19T02:39:44.764Z,3.15
2023-01-19T02:42:21.467Z,3.08
2023-01-19T02:44:50.802Z,2.88
2023-01-19T02:47:18.404Z,2.78
2023-01-19T02:49:45.180Z,2.92
2023-01-19T02:52:18.028Z,2.78
2023-01-19T02:55:06.529Z,2.83
2023-01-19T02:57:49.222Z,2.50
2023-01-19T03:00:49.894Z,2.47
2023-01-19T03:06:08.428Z,2.53
2023-01-19T03:09:01.589Z,2.50
2023-01-19T03:11:35.220Z,2.60
2023-01-19T03:14:11.515Z,2.60
2023-01-19T03:16:44.057Z,2.70
2023-01-19T03:19:23.030Z,2.83
2023-01-19T03:21:55.243Z,3.35
2023-01-19T03:24:25.002Z,2.58
2023-01-19T03:26:58.891Z,2.80
2023-01-19T03:29:30.186Z,2.60
2023-01-19T03:31:59.765Z,2.92
2023-01-19T03:34:28.877Z,2.80
2023-01-19T03:37:00.411Z,2.85
2023-01-19T03:39:28.889Z,2.90
2023-01-19T03:42:03.004Z,2.67
2023-01-19T03:44:32.457Z,2.90
2023-01-19T03:47:00.175Z,3.03
2023-01-19T03:49:27.070Z,2.80
2023-01-19T03:51:58.864Z,3.33
2023-01-19T03:54:25.954Z,2.60
2023-01-19T03:56:52.604Z,2.35
2023-01-19T03:59:20.081Z,2.30
2023-01-19T04:01:47.032Z,2.30
2023-01-19T04:04:15.434Z,2.58
2023-01-19T04:06:43.454Z,2.30
2023-01-19T04:09:10.375Z,2.92
2023-01-19T04:11:37.045Z,2.22
2023-01-19T04:14:04.282Z,2.50
2023-01-19T04:16:31.032Z,2.20
2023-01-19T04:18:58.144Z,2.70
2023-01-19T04:21:25.029Z,2.40
2023-01-19T04:23:53.151Z,2.40
2023-01-19T04:26:20.145Z,2.30
2023-01-19T04:28:54.533Z,2.50
2023-01-19T04:31:24.923Z,2.60
2023-01-19T04:33:51.682Z,2.58
2023-01-19T04:36:18.355Z,2.50
2023-01-19T04:38:46.674Z,2.60
2023-01-19T04:41:13.445Z,2.67
2023-01-19T04:43:40.865Z,2.35
2023-01-19T04:46:07.778Z,2.70
2023-01-19T04:48:34.869Z,2.55
2023-01-19T04:51:01.596Z,2.28
2023-01-19T04:53:28.362Z,2.40
2023-01-19T04:55:55.415Z,2.92
2023-01-19T04:58:22.237Z,2.53
2023-01-19T05:00:49.289Z,2.90
2023-01-19T05:03:16.128Z,2.70
2023-01-19T05:05:42.857Z,2.60
2023-01-19T05:08:09.635Z,3.20
2023-01-19T05:10:36.590Z,3.05
2023-01-19T05:13:04.236Z,2.95
2023-01-19T05:15:31.001Z,2.65
2023-01-19T05:17:58.545Z,2.88
2023-01-19T05:20:26.102Z,3.15
2023-01-19T05:22:53.677Z,3.13
2023-01-19T05:25:20.878Z,3.25
2023-01-19T05:27:47.923Z,2.97
2023-01-19T05:30:14.788Z,3.17
2023-01-19T05:32:41.652Z,3.40
2023-01-19T05:35:09.546Z,3.45
2023-01-19T05:37:36.371Z,3.05
2023-01-19T05:40:03.611Z,3.65
2023-01-19T05:42:32.099Z,4.03
2023-01-19T05:45:00.193Z,3.10
2023-01-19T05:47:30.851Z,3.88
2023-01-19T05:49:57.880Z,2.95
2023-01-19T05:52:27.748Z,4.00
2023-01-19T05:54:55.234Z,3.20
2023-01-19T05:57:22.785Z,3.10
2023-01-19T05:59:49.678Z,2.75
2023-01-19T06:02:16.829Z,2.92
2023-01-19T06:04:43.493Z,2.85
2023-01-19T06:07:10.161Z,3.00
2023-01-19T06:09:37.131Z,2.65
2023-01-19T06:12:04.362Z,2.55
2023-01-19T06:14:32.442Z,3.20
2023-01-19T06:16:59.318Z,3.22
2023-01-19T06:19:26.111Z,2.72
2023-01-19T06:21:52.886Z,3.05
2023-01-19T06:24:20.063Z,2.90
2023-01-19T06:26:46.971Z,3.20
2023-01-19T06:29:14.638Z,2.95
2023-01-19T06:31:42.468Z,2.58
2023-01-19T06:34:09.842Z,2.80
2023-01-19T06:36:36.908Z,2.83
2023-01-19T06:39:05.956Z,3.00
2023-01-19T06:41:37.032Z,2.70
2023-01-19T06:44:04.593Z,2.88
2023-01-19T06:46:31.917Z,3.20
2023-01-19T06:48:58.846Z,2.83
2023-01-19T06:51:26.235Z,3.00
2023-01-19T06:53:53.162Z,2.92
2023-01-19T06:56:19.812Z,2.40
2023-01-19T06:58:48.410Z,2.97
2023-01-19T07:01:15.411Z,3.20
2023-01-19T07:03:42.528Z,3.75
2023-01-19T07:06:09.404Z,4.55
2023-01-19T07:08:37.405Z,5.95
2023-01-19T07:11:25.799Z,6.20
2023-01-19T07:13:56.039Z,6.38
2023-01-19T07:16:23.122Z,9.52
2023-01-19T07:18:50.173Z,9.50
2023-01-19T07:21:17.855Z,7.05
2023-01-19T07:23:47.773Z,3.60
2023-01-19T07:26:15.348Z,2.60
2023-01-19T07:28:42.270Z,2.67
2023-01-19T07:31:09.689Z,4.80
2023-01-19T07:33:36.762Z,6.25
2023-01-19T07:36:03.692Z,3.00
2023-01-19T07:38:30.738Z,2.90
2023-01-19T07:41:05.305Z,2.90
2023-01-19T07:43:33.112Z,3.10
2023-01-19T07:46:01.796Z,2.83
2023-01-19T07:48:29.109Z,2.83
2023-01-19T07:51:11.711Z,2.83
2023-01-19T07:53:40.035Z,2.97
2023-01-19T07:56:07.812Z,2.72
2023-01-19T07:58:34.759Z,2.72
2023-01-19T08:01:06.656Z,3.08
2023-01-19T08:03:33.523Z,2.58
2023-01-19T08:06:00.499Z,3.30
2023-01-19T08:08:30.724Z,3.50
2023-01-19T08:10:58.989Z,2.40
2023-01-19T08:14:01.097Z,2.65
2023-01-19T08:16:28.760Z,2.83
2023-01-19T08:21:46.548Z,3.90
2023-01-19T08:24:21.669Z,3.67
2023-01-19T08:26:50.419Z,3.58
2023-01-19T08:29:20.517Z,4.00
2023-01-19T08:31:47.720Z,4.20
2023-01-19T08:34:14.821Z,4.68
2023-01-19T08:37:02.333Z,4.60
2023-01-19T08:39:31.313Z,6.35
2023-01-19T08:42:03.559Z,7.10
2023-01-19T08:44:30.838Z,6.68
2023-01-19T08:47:00.015Z,6.57
2023-01-19T08:49:31.024Z,6.68
2023-01-19T08:51:59.249Z,6.97
2023-01-19T08:54:26.074Z,8.07
2023-01-19T08:56:54.336Z,8.73
2023-01-19T08:59:38.231Z,9.43
2023-01-19T09:02:05.373Z,8.68
2023-01-19T09:04:34.547Z,7.60
2023-01-19T09:07:02.589Z,6.05
2023-01-19T09:09:29.656Z,6.35
2023-01-19T09:11:56.357Z,6.07
2023-01-19T09:14:23.256Z,6.50
2023-01-19T09:16:50.078Z,4.75
2023-01-19T09:19:16.936Z,5.00
2023-01-19T09:21:43.834Z,4.97
2023-01-19T09:24:10.669Z,5.97
2023-01-19T09:26:37.497Z,7.75
2023-01-19T09:29:04.350Z,7.90
2023-01-19T09:31:31.157Z,8.52
2023-01-19T09:33:58.070Z,7.78
2023-01-19T09:36:25.086Z,6.40
2023-01-19T09:38:52.000Z,5.70
2023-01-19T09:41:22.703Z,5.60
2023-01-19T09:43:56.650Z,4.85
2023-01-19T09:46:46.556Z,5.00
2023-01-19T09:49:24.602Z,5.45
2023-01-19T09:51:51.517Z,4.97
2023-01-19T09:54:25.269Z,5.05
2023-01-19T09:56:53.756Z,4.97
2023-01-19T09:59:21.610Z,5.13
2023-01-19T10:01:55.607Z,5.07
2023-01-19T10:04:32.228Z,5.18
2023-01-19T10:07:30.093Z,5.18
2023-01-19T10:10:23.489Z,4.90
2023-01-19T10:13:01.578Z,4.90
2023-01-19T10:15:58.502Z,4.68
2023-01-19T10:18:35.725Z,4.40
2023-01-19T10:21:08.653Z,4.60
2023-01-19T10:23:38.590Z,5.50
2023-01-19T10:26:25.958Z,5.35
2023-01-19T10:29:02.574Z,5.00
2023-01-19T10:31:29.461Z,4.88
2023-01-19T10:33:56.247Z,4.80
2023-01-19T10:36:33.917Z,5.13
2023-01-19T10:39:00.674Z,5.55
2023-01-19T10:41:50.527Z,4.72
2023-01-19T10:44:28.843Z,5.53
2023-01-19T10:46:58.702Z,5.13
2023-01-19T10:49:34.977Z,4.80
2023-01-19T10:52:03.104Z,4.70
2023-01-19T10:54:31.813Z,4.38
2023-01-19T10:57:05.030Z,4.53
2023-01-19T10:59:43.940Z,4.03
2023-01-19T11:02:22.995Z,3.97
2023-01-19T11:04:53.092Z,4.18
2023-01-19T11:07:26.120Z,3.80
2023-01-19T11:10:11.724Z,3.28
2023-01-19T11:12:53.507Z,3.72
2023-01-19T11:15:28.511Z,3.42
2023-01-19T11:17:55.696Z,3.72
2023-01-19T11:20:35.020Z,3.25
2023-01-19T11:23:27.230Z,3.40
2023-01-19T11:25:58.064Z,3.40
2023-01-19T11:28:39.907Z,2.85
2023-01-19T11:31:15.680Z,3.25
2023-01-19T11:33:43.668Z,3.20
2023-01-19T11:36:24.792Z,3.30
2023-01-19T11:39:15.834Z,3.55
2023-01-19T11:41:42.903Z,3.00
2023-01-19T11:44:33.856Z,3.00
2023-01-19T11:47:04.979Z,3.00
2023-01-19T11:49:47.405Z,2.90
2023-01-19T11:52:17.104Z,2.80
2023-01-19T11:55:05.336Z,3.00
2023-01-19T11:57:32.066Z,2.80
2023-01-19T12:00:03.573Z,2.60
2023-01-19T12:02:44.795Z,2.60
2023-01-19T12:05:16.123Z,2.50
2023-01-19T12:07:45.356Z,2.75
2023-01-19T12:10:27.132Z,2.42
2023-01-19T12:12:54.306Z,2.50
2023-01-19T12:15:37.469Z,2.92
2023-01-19T12:18:12.022Z,2.78
2023-01-19T12:20:44.429Z,2.80
2023-01-19T12:23:11.151Z,2.90
2023-01-19T12:25:46.719Z,2.80
2023-01-19T12:28:16.760Z,2.58
2023-01-19T12:30:44.496Z,2.70
2023-01-19T12:33:26.516Z,2.65
2023-01-19T12:36:14.643Z,3.05
2023-01-19T12:39:02.194Z,4.00
2023-01-19T12:41:35.037Z,4.32
2023-01-19T12:44:16.776Z,4.82
2023-01-19T12:47:06.413Z,4.25
2023-01-19T12:49:35.526Z,4.18
2023-01-19T12:52:35.807Z,3.90
2023-01-19T12:55:14.728Z,3.40
2023-01-19T12:57:55.405Z,3.38
2023-01-19T13:00:22.163Z,3.40
2023-01-19T13:02:56.194Z,3.38
2023-01-19T13:05:33.168Z,3.67
2023-01-19T13:08:03.010Z,3.42
2023-01-19T13:11:04.977Z,3.53
2023-01-19T13:13:42.381Z,3.13
2023-01-19T13:16:18.215Z,3.17
2023-01-19T13:19:13.119Z,3.00
2023-01-19T13:21:45.760Z,3.00
2023-01-19T13:24:17.779Z,3.03
2023-01-19T13:26:50.333Z,3.00
2023-01-19T13:29:17.099Z,2.90
2023-01-19T13:31:45.999Z,3.00
2023-01-19T13:34:19.960Z,3.20
2023-01-19T13:36:52.886Z,3.08
2023-01-19T13:39:51.122Z,3.00
2023-01-19T13:42:37.877Z,2.97
2023-01-19T13:45:33.541Z,2.80
2023-01-19T13:48:05.265Z,2.83
2023-01-19T13:50:35.246Z,3.20
2023-01-19T13:53:04.613Z,3.35
2023-01-19T13:55:31.776Z,3.42
2023-01-19T13:57:58.681Z,3.40
2023-01-19T14:00:30.777Z,3.30
2023-01-19T14:03:13.853Z,2.75
2023-01-19T14:05:43.962Z,2.88
2023-01-19T14:08:13.705Z,2.70
2023-01-19T14:11:01.193Z,2.88
2023-01-19T14:13:35.012Z,2.50
2023-01-19T14:16:07.023Z,2.80
2023-01-19T14:18:36.897Z,2.60
2023-01-19T14:21:11.337Z,2.53
2023-01-19T14:23:49.300Z,2.38
2023-01-19T14:26:38.224Z,2.35
2023-01-19T14:29:34.605Z,2.50
2023-01-19T14:32:01.473Z,2.55
2023-01-19T14:34:39.182Z,2.25
2023-01-19T14:37:16.802Z,2.47
2023-01-19T14:39:46.818Z,2.50
2023-01-19T14:42:28.611Z,2.30
2023-01-19T14:44:57.853Z,2.20
2023-01-19T14:47:29.900Z,2.13
2023-01-19T14:50:28.331Z,2.05
2023-01-19T14:53:02.402Z,2.10
2023-01-19T14:55:35.660Z,2.15
2023-01-19T14:58:07.706Z,1.95
2023-01-19T15:00:34.403Z,1.92
2023-01-19T15:03:01.103Z,1.90
2023-01-19T15:05:28.207Z,2.20
2023-01-19T15:07:56.538Z,2.30
2023-01-19T15:10:24.911Z,2.13
2023-01-19T15:12:54.024Z,2.20
2023-01-19T15:15:29.242Z,2.22
2023-01-19T15:17:56.541Z,2.13
2023-01-19T15:20:23.807Z,2.05
2023-01-19T15:22:50.742Z,2.25
2023-01-19T15:25:25.746Z,2.10
2023-01-19T15:27:53.174Z,2.10
2023-01-19T15:30:24.656Z,2.25
2023-01-19T15:32:51.518Z,2.40
2023-01-19T15:35:23.297Z,2.60
2023-01-19T15:37:51.573Z,2.83
2023-01-19T15:40:19.812Z,2.60
2023-01-19T15:42:46.798Z,2.60
2023-01-19T15:45:54.733Z,2.60
2023-01-19T15:48:22.482Z,2.67
2023-01-19T15:50:49.267Z,2.70
2023-01-19T15:53:18.879Z,2.63
2023-01-19T15:55:50.235Z,2.58
2023-01-19T15:58:18.497Z,2.67
2023-01-19T16:00:45.283Z,2.60
2023-01-19T16:03:12.012Z,2.63
2023-01-19T16:05:43.425Z,2.30
2023-01-19T16:08:11.727Z,2.17
2023-01-19T16:10:43.361Z,2.25
2023-01-19T16:13:11.388Z,2.40
2023-01-19T16:15:39.752Z,2.40
2023-01-19T16:18:06.697Z,2.20
2023-01-19T16:20:33.554Z,2.08
2023-01-19T16:23:14.535Z,2.15
2023-01-19T16:25:42.395Z,1.90
2023-01-19T16:28:09.377Z,1.70
2023-01-19T16:30:36.220Z,1.80
2023-01-19T16:33:03.469Z,2.08
2023-01-19T16:35:30.189Z,2.00
2023-01-19T16:37:56.890Z,2.03
2023-01-19T16:40:23.651Z,2.08
2023-01-19T16:42:51.075Z,1.80
2023-01-19T16:45:17.817Z,1.80
2023-01-19T16:47:46.943Z,2.00
2023-01-19T16:50:13.672Z,1.63
2023-01-19T16:52:40.508Z,1.70
2023-01-19T16:55:09.600Z,1.65
2023-01-19T16:57:38.950Z,1.63
2023-01-19T17:00:09.379Z,1.98
2023-01-19T17:02:41.025Z,1.50
2023-01-19T17:05:08.446Z,1.73
2023-01-19T17:07:35.309Z,1.70
2023-01-19T17:10:02.301Z,1.70
2023-01-19T17:12:32.059Z,1.60
2023-01-19T17:14:59.679Z,1.60
2023-01-19T17:17:26.908Z,1.67
2023-01-19T17:19:54.474Z,1.60
2023-01-19T17:22:21.679Z,1.63
2023-01-19T17:24:49.160Z,1.80
2023-01-19T17:27:17.150Z,1.80
2023-01-19T17:29:43.875Z,1.80
2023-01-19T17:32:10.677Z,1.60
2023-01-19T17:34:37.520Z,1.90
2023-01-19T17:37:04.486Z,1.70
2023-01-19T17:39:31.600Z,1.90
2023-01-19T17:41:58.673Z,1.45
2023-01-19T17:44:25.533Z,1.63
2023-01-19T17:46:52.324Z,1.60
2023-01-19T17:49:19.067Z,1.70
2023-01-19T17:51:51.739Z,1.52
2023-01-19T17:54:19.257Z,1.63
2023-01-19T17:56:46.015Z,1.70
2023-01-19T17:59:13.165Z,1.85
2023-01-19T18:01:40.619Z,1.70
2023-01-19T18:04:08.473Z,1.67
2023-01-19T18:06:35.820Z,1.70
2023-01-19T18:09:04.839Z,1.63
2023-01-19T18:11:32.449Z,1.60
2023-01-19T18:14:00.644Z,1.63
2023-01-19T18:16:29.950Z,1.40
2023-01-19T18:18:57.124Z,1.40
2023-01-19T18:21:27.408Z,1.33
2023-01-19T18:24:01.218Z,1.30
2023-01-19T18:26:28.647Z,1.50
2023-01-19T18:28:57.224Z,1.70
2023-01-19T18:31:25.677Z,1.30
2023-01-19T18:33:53.014Z,1.42
2023-01-19T18:36:20.363Z,1.20
2023-01-19T18:38:47.699Z,1.40
2023-01-19T18:41:17.286Z,1.50
2023-01-19T18:43:44.176Z,1.40
2023-01-19T18:46:11.483Z,1.40
2023-01-19T18:48:39.608Z,1.50
2023-01-19T18:51:12.232Z,1.20
2023-01-19T18:53:39.493Z,1.20
2023-01-19T18:56:06.560Z,1.30
2023-01-19T18:58:37.994Z,1.27
2023-01-19T19:01:16.687Z,1.30
2023-01-19T19:03:43.597Z,1.38
2023-01-19T19:06:11.763Z,1.33
2023-01-19T19:08:38.841Z,1.27
2023-01-19T19:11:12.668Z,1.38
2023-01-19T19:13:40.903Z,1.42
2023-01-19T19:16:09.437Z,1.40
2023-01-19T19:18:38.058Z,1.63
2023-01-19T19:21:07.436Z,1.63
2023-01-19T19:23:34.704Z,1.60
2023-01-19T19:26:07.323Z,1.50
2023-01-19T19:28:37.159Z,1.70
2023-01-19T19:31:10.344Z,1.45
2023-01-19T19:33:38.091Z,1.60
2023-01-19T19:36:06.220Z,1.60
2023-01-19T19:38:33.337Z,1.60
2023-01-19T19:41:05.215Z,1.48
2023-01-19T19:43:33.147Z,1.50
2023-01-19T19:46:06.520Z,1.50
2023-01-19T19:48:34.075Z,1.48
2023-01-19T19:51:17.559Z,1.60
2023-01-19T19:53:46.512Z,1.50
2023-01-19T19:56:13.869Z,1.58
2023-01-19T19:58:44.701Z,1.48
2023-01-19T20:01:14.640Z,1.35
2023-01-19T20:03:42.238Z,1.60
2023-01-19T20:06:15.449Z,1.45
2023-01-19T20:08:43.068Z,1.27
2023-01-19T20:11:13.720Z,1.27
2023-01-19T20:16:12.685Z,1.27
2023-01-19T20:18:48.797Z,1.50
2023-01-19T20:21:19.444Z,1.58
2023-01-19T20:23:49.278Z,1.40
2023-01-19T20:26:20.202Z,1.33
2023-01-19T20:28:47.588Z,1.35
2023-01-19T20:31:24.580Z,1.52
2023-01-19T20:33:52.944Z,1.40
2023-01-19T20:36:21.984Z,1.40
2023-01-19T20:38:48.685Z,1.42
2023-01-19T20:41:15.609Z,1.40
2023-01-19T20:43:42.608Z,1.40
2023-01-19T20:46:10.273Z,1.50
2023-01-19T20:48:39.177Z,1.30
2023-01-19T20:51:08.882Z,1.30
2023-01-19T20:53:35.894Z,1.38
2023-01-19T20:56:06.168Z,1.40
2023-01-19T20:58:33.817Z,1.20
2023-01-19T21:01:00.681Z,1.10
2023-01-19T21:03:29.506Z,1.20
2023-01-19T21:05:59.401Z,1.40
2023-01-19T21:08:26.221Z,1.40
2023-01-19T21:10:56.452Z,1.20
2023-01-19T21:13:23.203Z,1.30
2023-01-19T21:15:50.210Z,1.20
2023-01-19T21:18:17.062Z,1.15
2023-01-19T21:20:44.841Z,1.30
2023-01-19T21:23:11.510Z,1.00
2023-01-19T21:25:38.321Z,1.10
2023-01-19T21:28:05.177Z,1.20
2023-01-19T21:30:31.889Z,1.02
2023-01-19T21:32:58.686Z,1.10
2023-01-19T21:35:25.489Z,1.10
2023-01-19T21:37:52.187Z,1.10
2023-01-19T21:40:19.029Z,0.98
2023-01-19T21:42:45.757Z,1.13
2023-01-19T21:45:12.948Z,1.00
2023-01-19T21:47:39.789Z,1.13
2023-01-19T21:50:06.691Z,0.93
2023-01-19T21:52:33.429Z,1.00
2023-01-19T21:55:00.169Z,0.98
2023-01-19T21:57:26.896Z,1.00
2023-01-19T21:59:53.608Z,0.90
2023-01-19T22:02:37.147Z,1.00
2023-01-19T22:05:06.490Z,0.90
2023-01-19T22:07:33.362Z,1.00
2023-01-19T22:10:02.539Z,1.20
2023-01-19T22:12:33.323Z,1.20
2023-01-19T22:15:00.053Z,1.23
2023-01-19T22:17:26.745Z,1.10
2023-01-19T22:19:53.685Z,1.10
2023-01-19T22:22:20.872Z,1.20
2023-01-19T22:24:50.205Z,1.08
2023-01-19T22:27:17.324Z,1.00
2023-01-19T22:29:44.059Z,0.80
2023-01-19T22:32:10.789Z,0.80
2023-01-19T22:34:37.575Z,0.90
2023-01-19T22:37:06.382Z,1.10
2023-01-19T22:39:34.395Z,1.00
2023-01-19T22:42:01.185Z,0.90
2023-01-19T22:44:27.931Z,1.00
2023-01-19T22:46:55.988Z,1.05
2023-01-19T22:49:22.984Z,1.00
2023-01-19T22:51:49.717Z,0.90
2023-01-19T22:54:16.500Z,1.00
2023-01-19T22:56:43.342Z,0.90
2023-01-19T22:59:10.070Z,1.10
2023-01-19T23:01:42.948Z,1.20
2023-01-19T23:04:15.448Z,1.00
2023-01-19T23:06:42.664Z,0.90
2023-01-19T23:09:14.001Z,1.00
2023-01-19T23:11:43.272Z,1.00
2023-01-19T23:14:15.649Z,1.00
2023-01-19T23:16:42.854Z,1.13
2023-01-19T23:19:11.745Z,1.25
2023-01-19T23:21:38.673Z,1.23
2023-01-19T23:24:06.127Z,1.10
2023-01-19T23:26:38.244Z,1.00
2023-01-19T23:29:08.090Z,1.20
2023-01-19T23:31:37.060Z,1.20
2023-01-19T23:34:09.051Z,1.40
2023-01-19T23:36:37.700Z,1.10
2023-01-19T23:39:14.151Z,1.10
2023-01-19T23:41:40.928Z,1.20
2023-01-19T23:44:08.766Z,1.20
2023-01-19T23:46:35.622Z,1.27
2023-01-19T23:49:02.533Z,1.10
2023-01-19T23:51:31.715Z,1.30
2023-01-19T23:53:59.441Z,1.10
2023-01-19T23:56:32.132Z,1.20
2023-01-19T23:59:01.704Z,1.60
